X  CloseMetar Aviation Weather Data     KRYV Watertown Municipal

Temperature

88°F Temperature

82°F Dewpoint

84% Humidity



Wind

 5 MPH

 8 KM/H

 2 M/S

 4 KTS



190°
Due South
Current Conditions

Clear Clear
Pressure 1007.42 (hPa) - 29.75 (in)
Visibility 10 (mi) - 16.1 (km)
Airport
Airport-code KRYV

Location Watertown Municipal 18 (mi)

Metar:
KRYV 200035Z AUTO 19004KT 10SM CLR 31/28 A2975 RMK AO2 T03050275

Time: 07-19-2019 7:35